sensor_id;sensor_type;location;lat;lon;timestamp;temperature;humidity
3268;DHT22;1646;52.450;13.326;2022-10-31T00:01:24;14.40;99.90
3268;DHT22;1646;52.450;13.326;2022-10-31T00:06:23;14.30;99.90
3268;DHT22;1646;52.450;13.326;2022-10-31T00:11:22;14.20;99.90
3268;DHT22;1646;52.450;13.326;2022-10-31T00:16:23;14.30;99.90
3268;DHT22;1646;52.450;13.326;2022-10-31T00:21:22;14.20;99.90
3268;DHT22;1646;52.450;13.326;2022-10-31T00:26:20;14.20;99.90
3268;DHT22;1646;52.450;13.326;2022-10-31T00:31:20;14.20;99.90
3268;DHT22;1646;52.450;13.326;2022-10-31T00:36:19;14.10;99.90
3268;DHT22;1646;52.450;13.326;2022-10-31T00:41:20;14.10;99.90
3268;DHT22;1646;52.450;13.326;2022-10-31T00:46:19;14.10;99.90
3268;DHT22;1646;52.450;13.326;2022-10-31T00:51:20;14.10;99.90
3268;DHT22;1646;52.450;13.326;2022-10-31T00:56:18;14.10;99.90
3268;DHT22;1646;52.450;13.326;2022-10-31T01:01:15;14.10;99.90
3268;DHT22;1646;52.450;13.326;2022-10-31T01:06:16;14.10;99.90
3268;DHT22;1646;52.450;13.326;2022-10-31T01:11:16;14.10;99.90
3268;DHT22;1646;52.450;13.326;2022-10-31T01:16:17;14.10;99.90
3268;DHT22;1646;52.450;13.326;2022-10-31T01:21:19;14.10;99.90
3268;DHT22;1646;52.450;13.326;2022-10-31T01:26:21;14.00;99.90
3268;DHT22;1646;52.450;13.326;2022-10-31T01:31:21;14.10;99.90
3268;DHT22;1646;52.450;13.326;2022-10-31T01:36:22;14.10;99.90
3268;DHT22;1646;52.450;13.326;2022-10-31T01:41:22;14.10;99.90
3268;DHT22;1646;52.450;13.326;2022-10-31T01:46:23;14.00;99.90
3268;DHT22;1646;52.450;13.326;2022-10-31T01:51:27;14.00;99.90
3268;DHT22;1646;52.450;13.326;2022-10-31T01:56:27;14.00;99.90
3268;DHT22;1646;52.450;13.326;2022-10-31T02:01:25;14.00;99.90
3268;DHT22;1646;52.450;13.326;2022-10-31T02:06:33;14.00;99.90
3268;DHT22;1646;52.450;13.326;2022-10-31T02:11:34;14.00;99.90
3268;DHT22;1646;52.450;13.326;2022-10-31T02:16:33;14.00;99.90
3268;DHT22;1646;52.450;13.326;2022-10-31T02:21:41;14.00;99.90
3268;DHT22;1646;52.450;13.326;2022-10-31T02:26:57;14.00;99.90
3268;DHT22;1646;52.450;13.326;2022-10-31T02:32:05;13.90;99.90
3268;DHT22;1646;52.450;13.326;2022-10-31T02:37:10;13.80;99.90
3268;DHT22;1646;52.450;13.326;2022-10-31T02:42:16;13.80;99.90
3268;DHT22;1646;52.450;13.326;2022-10-31T02:47:19;13.70;99.90
3268;DHT22;1646;52.450;13.326;2022-10-31T02:52:23;13.70;99.90
3268;DHT22;1646;52.450;13.326;2022-10-31T02:57:24;13.70;99.90
3268;DHT22;1646;52.450;13.326;2022-10-31T03:02:35;13.70;99.90
3268;DHT22;1646;52.450;13.326;2022-10-31T03:07:42;13.70;99.90
3268;DHT22;1646;52.450;13.326;2022-10-31T03:12:49;13.60;99.90
3268;DHT22;1646;52.450;13.326;2022-10-31T03:17:58;13.60;99.90
3268;DHT22;1646;52.450;13.326;2022-10-31T03:22:58;13.50;99.90
3268;DHT22;1646;52.450;13.326;2022-10-31T03:27:57;13.50;99.90
3268;DHT22;1646;52.450;13.326;2022-10-31T03:33:02;13.50;99.90
3268;DHT22;1646;52.450;13.326;2022-10-31T03:38:03;13.50;99.90
3268;DHT22;1646;52.450;13.326;2022-10-31T03:43:05;13.50;99.90
3268;DHT22;1646;52.450;13.326;2022-10-31T03:48:07;13.50;99.90
3268;DHT22;1646;52.450;13.326;2022-10-31T03:53:08;13.50;99.90
3268;DHT22;1646;52.450;13.326;2022-10-31T03:58:10;13.40;99.90
3268;DHT22;1646;52.450;13.326;2022-10-31T04:03:14;13.40;99.90
3268;DHT22;1646;52.450;13.326;2022-10-31T04:08:17;13.30;99.90
3268;DHT22;1646;52.450;13.326;2022-10-31T04:13:20;13.30;99.90
3268;DHT22;1646;52.450;13.326;2022-10-31T04:18:29;13.20;99.90
3268;DHT22;1646;52.450;13.326;2022-10-31T04:23:28;13.10;99.90
3268;DHT22;1646;52.450;13.326;2022-10-31T04:28:29;13.10;99.90
3268;DHT22;1646;52.450;13.326;2022-10-31T04:33:28;13.10;99.90
3268;DHT22;1646;52.450;13.326;2022-10-31T04:38:26;13.00;99.90
3268;DHT22;1646;52.450;13.326;2022-10-31T04:43:24;13.00;99.90
3268;DHT22;1646;52.450;13.326;2022-10-31T04:48:23;13.00;99.90
3268;DHT22;1646;52.450;13.326;2022-10-31T04:53:22;12.90;99.90
3268;DHT22;1646;52.450;13.326;2022-10-31T04:58:49;12.90;99.90
3268;DHT22;1646;52.450;13.326;2022-10-31T05:03:47;12.90;99.90
3268;DHT22;1646;52.450;13.326;2022-10-31T05:08:47;12.90;99.90
3268;DHT22;1646;52.450;13.326;2022-10-31T05:13:45;12.80;99.90
3268;DHT22;1646;52.450;13.326;2022-10-31T05:18:43;12.80;99.90
3268;DHT22;1646;52.450;13.326;2022-10-31T05:24:06;12.80;99.90
3268;DHT22;1646;52.450;13.326;2022-10-31T05:29:13;12.70;99.90
3268;DHT22;1646;52.450;13.326;2022-10-31T05:34:14;12.70;99.90
3268;DHT22;1646;52.450;13.326;2022-10-31T05:39:15;12.70;99.90
3268;DHT22;1646;52.450;13.326;2022-10-31T05:44:18;12.60;99.90
3268;DHT22;1646;52.450;13.326;2022-10-31T05:49:42;12.60;99.90
3268;DHT22;1646;52.450;13.326;2022-10-31T05:55:20;12.60;99.90
3268;DHT22;1646;52.450;13.326;2022-10-31T06:00:36;12.60;99.90
3268;DHT22;1646;52.450;13.326;2022-10-31T06:05:37;12.60;99.90
3268;DHT22;1646;52.450;13.326;2022-10-31T06:10:37;12.60;99.90
3268;DHT22;1646;52.450;13.326;2022-10-31T06:15:35;12.60;99.90
3268;DHT22;1646;52.450;13.326;2022-10-31T06:20:36;12.70;99.90
3268;DHT22;1646;52.450;13.326;2022-10-31T06:25:36;12.70;99.90
3268;DHT22;1646;52.450;13.326;2022-10-31T06:30:34;12.70;99.90
3268;DHT22;1646;52.450;13.326;2022-10-31T06:35:33;12.80;99.90
3268;DHT22;1646;52.450;13.326;2022-10-31T06:40:31;12.90;99.90
3268;DHT22;1646;52.450;13.326;2022-10-31T06:45:47;13.00;99.90
3268;DHT22;1646;52.450;13.326;2022-10-31T06:50:48;13.10;99.90
3268;DHT22;1646;52.450;13.326;2022-10-31T06:55:46;13.10;99.90
3268;DHT22;1646;52.450;13.326;2022-10-31T07:00:44;13.20;99.90
3268;DHT22;1646;52.450;13.326;2022-10-31T07:05:44;13.30;99.90
3268;DHT22;1646;52.450;13.326;2022-10-31T07:10:43;13.50;99.90
3268;DHT22;1646;52.450;13.326;2022-10-31T07:15:48;13.70;99.90
3268;DHT22;1646;52.450;13.326;2022-10-31T07:20:48;14.00;99.90
3268;DHT22;1646;52.450;13.326;2022-10-31T07:25:47;14.40;99.90
3268;DHT22;1646;52.450;13.326;2022-10-31T07:30:51;14.60;99.90
3268;DHT22;1646;52.450;13.326;2022-10-31T07:35:51;15.00;99.90
3268;DHT22;1646;52.450;13.326;2022-10-31T07:40:56;15.40;99.90
3268;DHT22;1646;52.450;13.326;2022-10-31T07:45:59;15.80;99.90
3268;DHT22;1646;52.450;13.326;2022-10-31T07:51:22;16.10;99.90
3268;DHT22;1646;52.450;13.326;2022-10-31T07:56:51;16.20;99.90
3268;DHT22;1646;52.450;13.326;2022-10-31T08:01:49;16.30;99.90
3268;DHT22;1646;52.450;13.326;2022-10-31T08:07:07;16.40;99.90
3268;DHT22;1646;52.450;13.326;2022-10-31T08:12:07;16.40;99.90
3268;DHT22;1646;52.450;13.326;2022-10-31T08:17:07;16.40;99.90
3268;DHT22;1646;52.450;13.326;2022-10-31T08:22:15;16.40;99.90
3268;DHT22;1646;52.450;13.326;2022-10-31T08:27:13;16.40;99.90
3268;DHT22;1646;52.450;13.326;2022-10-31T08:32:13;16.40;99.90
3268;DHT22;1646;52.450;13.326;2022-10-31T08:37:38;16.40;99.90
3268;DHT22;1646;52.450;13.326;2022-10-31T08:42:37;16.60;99.90
3268;DHT22;1646;52.450;13.326;2022-10-31T08:47:35;16.90;99.90
3268;DHT22;1646;52.450;13.326;2022-10-31T08:52:33;17.30;99.90
3268;DHT22;1646;52.450;13.326;2022-10-31T08:57:55;17.60;99.90
3268;DHT22;1646;52.450;13.326;2022-10-31T09:03:08;18.10;99.90
3268;DHT22;1646;52.450;13.326;2022-10-31T09:08:07;18.20;99.90
3268;DHT22;1646;52.450;13.326;2022-10-31T09:13:16;18.60;99.90
3268;DHT22;1646;52.450;13.326;2022-10-31T09:18:35;18.60;99.90
3268;DHT22;1646;52.450;13.326;2022-10-31T09:23:33;18.50;99.90
3268;DHT22;1646;52.450;13.326;2022-10-31T09:28:32;18.30;99.90
3268;DHT22;1646;52.450;13.326;2022-10-31T09:33:36;18.10;99.90
3268;DHT22;1646;52.450;13.326;2022-10-31T09:38:57;18.20;99.90
3268;DHT22;1646;52.450;13.326;2022-10-31T09:44:03;19.10;99.90
3268;DHT22;1646;52.450;13.326;2022-10-31T09:49:25;19.50;99.90
3268;DHT22;1646;52.450;13.326;2022-10-31T09:54:29;19.90;99.90
3268;DHT22;1646;52.450;13.326;2022-10-31T09:59:34;19.20;99.90
3268;DHT22;1646;52.450;13.326;2022-10-31T10:04:38;19.20;99.90
3268;DHT22;1646;52.450;13.326;2022-10-31T10:09:55;21.70;99.90
3268;DHT22;1646;52.450;13.326;2022-10-31T10:15:13;24.60;99.90
3268;DHT22;1646;52.450;13.326;2022-10-31T10:20:24;24.90;99.90
3268;DHT22;1646;52.450;13.326;2022-10-31T10:25:25;24.20;99.90
3268;DHT22;1646;52.450;13.326;2022-10-31T10:30:32;23.90;99.90
3268;DHT22;1646;52.450;13.326;2022-10-31T10:35:33;24.00;99.90
3268;DHT22;1646;52.450;13.326;2022-10-31T10:40:37;25.50;99.90
3268;DHT22;1646;52.450;13.326;2022-10-31T10:45:37;27.50;99.90
3268;DHT22;1646;52.450;13.326;2022-10-31T10:50:57;29.00;99.90
3268;DHT22;1646;52.450;13.326;2022-10-31T10:55:58;30.90;99.90
3268;DHT22;1646;52.450;13.326;2022-10-31T11:00:58;31.80;98.80
3268;DHT22;1646;52.450;13.326;2022-10-31T11:05:59;33.10;93.80
3268;DHT22;1646;52.450;13.326;2022-10-31T11:10:59;32.60;91.90
3268;DHT22;1646;52.450;13.326;2022-10-31T11:16:03;32.30;91.60
3268;DHT22;1646;52.450;13.326;2022-10-31T11:21:04;31.90;90.10
3268;DHT22;1646;52.450;13.326;2022-10-31T11:26:04;30.60;91.50
3268;DHT22;1646;52.450;13.326;2022-10-31T11:31:08;29.80;93.30
3268;DHT22;1646;52.450;13.326;2022-10-31T11:36:16;30.60;92.40
3268;DHT22;1646;52.450;13.326;2022-10-31T11:41:18;30.40;92.40
3268;DHT22;1646;52.450;13.326;2022-10-31T11:46:21;30.80;92.30
3268;DHT22;1646;52.450;13.326;2022-10-31T11:51:21;31.60;90.60
3268;DHT22;1646;52.450;13.326;2022-10-31T11:56:19;31.10;90.70
3268;DHT22;1646;52.450;13.326;2022-10-31T12:01:27;29.60;91.10
3268;DHT22;1646;52.450;13.326;2022-10-31T12:06:29;28.00;94.10
3268;DHT22;1646;52.450;13.326;2022-10-31T12:11:42;26.80;96.10
3268;DHT22;1646;52.450;13.326;2022-10-31T12:16:51;25.90;98.60
3268;DHT22;1646;52.450;13.326;2022-10-31T12:22:03;25.30;99.90
3268;DHT22;1646;52.450;13.326;2022-10-31T12:27:12;25.10;99.90
3268;DHT22;1646;52.450;13.326;2022-10-31T12:32:23;24.80;99.90
3268;DHT22;1646;52.450;13.326;2022-10-31T12:37:39;24.40;99.90
3268;DHT22;1646;52.450;13.326;2022-10-31T12:42:54;24.10;99.90
3268;DHT22;1646;52.450;13.326;2022-10-31T12:48:08;24.00;99.90
3268;DHT22;1646;52.450;13.326;2022-10-31T12:53:25;23.80;99.90
3268;DHT22;1646;52.450;13.326;2022-10-31T12:58:28;23.40;99.90
3268;DHT22;1646;52.450;13.326;2022-10-31T13:03:32;23.10;99.90
3268;DHT22;1646;52.450;13.326;2022-10-31T13:08:36;22.80;99.90
3268;DHT22;1646;52.450;13.326;2022-10-31T13:13:38;22.40;99.90
3268;DHT22;1646;52.450;13.326;2022-10-31T13:18:42;22.10;99.90
3268;DHT22;1646;52.450;13.326;2022-10-31T13:23:44;21.90;99.90
3268;DHT22;1646;52.450;13.326;2022-10-31T13:28:52;21.80;99.90
3268;DHT22;1646;52.450;13.326;2022-10-31T13:33:57;21.70;99.90
3268;DHT22;1646;52.450;13.326;2022-10-31T13:39:01;21.60;99.90
3268;DHT22;1646;52.450;13.326;2022-10-31T13:44:02;21.60;99.90
3268;DHT22;1646;52.450;13.326;2022-10-31T13:49:03;21.60;99.90
3268;DHT22;1646;52.450;13.326;2022-10-31T13:54:18;21.50;99.90
3268;DHT22;1646;52.450;13.326;2022-10-31T13:59:19;21.40;99.90
3268;DHT22;1646;52.450;13.326;2022-10-31T14:04:24;21.20;99.90
3268;DHT22;1646;52.450;13.326;2022-10-31T14:09:31;21.00;99.90
3268;DHT22;1646;52.450;13.326;2022-10-31T14:14:35;20.90;99.90
3268;DHT22;1646;52.450;13.326;2022-10-31T14:19:38;20.70;99.90
3268;DHT22;1646;52.450;13.326;2022-10-31T14:24:36;20.50;99.90
3268;DHT22;1646;52.450;13.326;2022-10-31T14:29:34;20.30;99.90
3268;DHT22;1646;52.450;13.326;2022-10-31T14:34:34;20.00;99.90
3268;DHT22;1646;52.450;13.326;2022-10-31T14:39:40;19.60;99.90
3268;DHT22;1646;52.450;13.326;2022-10-31T14:44:56;19.30;99.90
3268;DHT22;1646;52.450;13.326;2022-10-31T14:50:21;19.00;99.90
3268;DHT22;1646;52.450;13.326;2022-10-31T14:55:23;18.80;99.90
3268;DHT22;1646;52.450;13.326;2022-10-31T15:00:23;18.50;99.90
3268;DHT22;1646;52.450;13.326;2022-10-31T15:05:26;18.30;99.90
3268;DHT22;1646;52.450;13.326;2022-10-31T15:10:28;18.10;99.90
3268;DHT22;1646;52.450;13.326;2022-10-31T15:15:28;18.00;99.90
3268;DHT22;1646;52.450;13.326;2022-10-31T15:20:30;17.80;99.90
3268;DHT22;1646;52.450;13.326;2022-10-31T15:25:33;17.70;99.90
3268;DHT22;1646;52.450;13.326;2022-10-31T15:30:31;17.60;99.90
3268;DHT22;1646;52.450;13.326;2022-10-31T15:35:30;17.50;99.90
3268;DHT22;1646;52.450;13.326;2022-10-31T15:40:30;17.30;99.90
3268;DHT22;1646;52.450;13.326;2022-10-31T15:50:56;17.10;99.90
3268;DHT22;1646;52.450;13.326;2022-10-31T15:55:57;17.00;99.90
3268;DHT22;1646;52.450;13.326;2022-10-31T16:00:58;16.90;99.90
3268;DHT22;1646;52.450;13.326;2022-10-31T16:06:00;16.80;99.90
3268;DHT22;1646;52.450;13.326;2022-10-31T16:11:17;16.60;99.90
3268;DHT22;1646;52.450;13.326;2022-10-31T16:16:16;16.70;99.90
3268;DHT22;1646;52.450;13.326;2022-10-31T16:21:33;16.50;99.90
3268;DHT22;1646;52.450;13.326;2022-10-31T16:26:33;16.50;99.90
3268;DHT22;1646;52.450;13.326;2022-10-31T16:31:37;16.50;99.90
3268;DHT22;1646;52.450;13.326;2022-10-31T16:36:35;16.50;99.90
3268;DHT22;1646;52.450;13.326;2022-10-31T16:41:39;16.40;99.90
3268;DHT22;1646;52.450;13.326;2022-10-31T16:46:38;16.40;99.90
3268;DHT22;1646;52.450;13.326;2022-10-31T16:51:36;16.40;99.90
3268;DHT22;1646;52.450;13.326;2022-10-31T16:56:37;16.40;99.90
3268;DHT22;1646;52.450;13.326;2022-10-31T17:01:39;16.40;99.90
3268;DHT22;1646;52.450;13.326;2022-10-31T17:06:39;16.40;99.90
3268;DHT22;1646;52.450;13.326;2022-10-31T17:11:41;16.40;99.90
3268;DHT22;1646;52.450;13.326;2022-10-31T17:16:45;16.30;99.90
3268;DHT22;1646;52.450;13.326;2022-10-31T17:21:43;16.40;99.90
3268;DHT22;1646;52.450;13.326;2022-10-31T17:26:43;16.30;99.90
3268;DHT22;1646;52.450;13.326;2022-10-31T17:31:41;16.20;99.90
3268;DHT22;1646;52.450;13.326;2022-10-31T17:36:39;16.10;99.90
3268;DHT22;1646;52.450;13.326;2022-10-31T17:41:37;16.10;99.90
3268;DHT22;1646;52.450;13.326;2022-10-31T17:46:36;16.20;99.90
3268;DHT22;1646;52.450;13.326;2022-10-31T17:51:34;16.20;99.90
3268;DHT22;1646;52.450;13.326;2022-10-31T17:56:32;16.20;99.90
3268;DHT22;1646;52.450;13.326;2022-10-31T18:01:30;16.10;99.90
3268;DHT22;1646;52.450;13.326;2022-10-31T18:06:30;16.10;99.90
3268;DHT22;1646;52.450;13.326;2022-10-31T18:11:28;16.00;99.90
3268;DHT22;1646;52.450;13.326;2022-10-31T18:16:26;16.00;99.90
3268;DHT22;1646;52.450;13.326;2022-10-31T18:21:24;16.00;99.90
3268;DHT22;1646;52.450;13.326;2022-10-31T18:26:25;16.00;99.90
3268;DHT22;1646;52.450;13.326;2022-10-31T18:31:23;16.10;99.90
3268;DHT22;1646;52.450;13.326;2022-10-31T18:36:22;16.10;99.90
3268;DHT22;1646;52.450;13.326;2022-10-31T18:41:24;16.10;99.90
3268;DHT22;1646;52.450;13.326;2022-10-31T18:46:22;16.00;99.90
3268;DHT22;1646;52.450;13.326;2022-10-31T18:51:20;16.00;99.90
3268;DHT22;1646;52.450;13.326;2022-10-31T18:56:18;15.90;99.90
3268;DHT22;1646;52.450;13.326;2022-10-31T19:01:19;15.90;99.90
3268;DHT22;1646;52.450;13.326;2022-10-31T19:06:18;16.00;99.90
3268;DHT22;1646;52.450;13.326;2022-10-31T19:11:16;15.90;99.90
3268;DHT22;1646;52.450;13.326;2022-10-31T19:16:16;15.90;99.90
3268;DHT22;1646;52.450;13.326;2022-10-31T19:21:16;15.90;99.90
3268;DHT22;1646;52.450;13.326;2022-10-31T19:26:14;15.90;99.90
3268;DHT22;1646;52.450;13.326;2022-10-31T19:31:12;15.80;99.90
3268;DHT22;1646;52.450;13.326;2022-10-31T19:36:13;15.80;99.90
3268;DHT22;1646;52.450;13.326;2022-10-31T19:41:16;15.80;99.90
3268;DHT22;1646;52.450;13.326;2022-10-31T19:46:16;15.80;99.90
3268;DHT22;1646;52.450;13.326;2022-10-31T19:51:29;15.80;99.90
3268;DHT22;1646;52.450;13.326;2022-10-31T19:56:28;15.80;99.90
3268;DHT22;1646;52.450;13.326;2022-10-31T20:01:26;15.80;99.90
3268;DHT22;1646;52.450;13.326;2022-10-31T20:06:28;15.70;99.90
3268;DHT22;1646;52.450;13.326;2022-10-31T20:11:31;15.70;99.90
3268;DHT22;1646;52.450;13.326;2022-10-31T20:16:29;15.60;99.90
3268;DHT22;1646;52.450;13.326;2022-10-31T20:21:29;15.60;99.90
3268;DHT22;1646;52.450;13.326;2022-10-31T20:26:28;15.50;99.90
3268;DHT22;1646;52.450;13.326;2022-10-31T20:31:30;15.50;99.90
3268;DHT22;1646;52.450;13.326;2022-10-31T20:36:28;15.50;99.90
3268;DHT22;1646;52.450;13.326;2022-10-31T20:41:27;15.50;99.90
3268;DHT22;1646;52.450;13.326;2022-10-31T20:46:27;15.50;99.90
3268;DHT22;1646;52.450;13.326;2022-10-31T20:51:27;15.50;99.90
3268;DHT22;1646;52.450;13.326;2022-10-31T20:56:27;15.50;99.90
3268;DHT22;1646;52.450;13.326;2022-10-31T21:01:28;15.40;99.90
3268;DHT22;1646;52.450;13.326;2022-10-31T21:06:27;15.40;99.90
3268;DHT22;1646;52.450;13.326;2022-10-31T21:11:30;15.50;99.90
3268;DHT22;1646;52.450;13.326;2022-10-31T21:16:31;15.40;99.90
3268;DHT22;1646;52.450;13.326;2022-10-31T21:21:33;15.40;99.90
3268;DHT22;1646;52.450;13.326;2022-10-31T21:26:35;15.40;99.90
3268;DHT22;1646;52.450;13.326;2022-10-31T21:31:35;15.40;99.90
3268;DHT22;1646;52.450;13.326;2022-10-31T21:36:34;15.30;99.90
3268;DHT22;1646;52.450;13.326;2022-10-31T21:41:32;15.30;99.90
3268;DHT22;1646;52.450;13.326;2022-10-31T21:46:31;15.30;99.90
3268;DHT22;1646;52.450;13.326;2022-10-31T21:51:33;15.20;99.90
3268;DHT22;1646;52.450;13.326;2022-10-31T21:56:37;15.20;99.90
3268;DHT22;1646;52.450;13.326;2022-10-31T22:01:35;15.20;99.90
3268;DHT22;1646;52.450;13.326;2022-10-31T22:06:35;15.10;99.90
3268;DHT22;1646;52.450;13.326;2022-10-31T22:11:33;15.10;99.90
3268;DHT22;1646;52.450;13.326;2022-10-31T22:16:34;15.10;99.90
3268;DHT22;1646;52.450;13.326;2022-10-31T22:21:39;15.00;99.90
3268;DHT22;1646;52.450;13.326;2022-10-31T22:26:37;15.00;99.90
3268;DHT22;1646;52.450;13.326;2022-10-31T22:31:38;15.00;99.90
3268;DHT22;1646;52.450;13.326;2022-10-31T22:36:39;15.00;99.90
3268;DHT22;1646;52.450;13.326;2022-10-31T22:41:37;15.00;99.90
3268;DHT22;1646;52.450;13.326;2022-10-31T22:46:37;15.00;99.90
3268;DHT22;1646;52.450;13.326;2022-10-31T22:51:36;15.00;99.90
3268;DHT22;1646;52.450;13.326;2022-10-31T22:56:36;14.90;99.90
3268;DHT22;1646;52.450;13.326;2022-10-31T23:01:34;14.90;99.90
3268;DHT22;1646;52.450;13.326;2022-10-31T23:06:33;14.90;99.90
3268;DHT22;1646;52.450;13.326;2022-10-31T23:11:32;15.00;99.90
3268;DHT22;1646;52.450;13.326;2022-10-31T23:16:32;15.00;99.90
3268;DHT22;1646;52.450;13.326;2022-10-31T23:21:30;15.00;99.90
3268;DHT22;1646;52.450;13.326;2022-10-31T23:26:49;15.00;99.90
3268;DHT22;1646;52.450;13.326;2022-10-31T23:32:05;15.00;99.90
3268;DHT22;1646;52.450;13.326;2022-10-31T23:37:03;15.00;99.90
3268;DHT22;1646;52.450;13.326;2022-10-31T23:42:01;15.00;99.90
3268;DHT22;1646;52.450;13.326;2022-10-31T23:46:59;15.00;99.90
3268;DHT22;1646;52.450;13.326;2022-10-31T23:51:59;15.00;99.90
3268;DHT22;1646;52.450;13.326;2022-10-31T23:56:57;15.00;99.90
